Time;durP1;ratioP1;P1;durP2;ratioP2;P2;SDS_P1;SDS_P2;PMS_P1;PMS_P2;Temp;Humidity;BMP_temperature;BMP_pressure;BME280_temperature;BME280_humidity;BME280_pressure;Samples;Min_cycle;Max_cycle;Signal;HPM_P1;HPM_P2
2021/03/11 00:00:03;;;;;;;16.73;9.48;;;6.00;80.50;;;;;;4975029;28;20038;-88
2021/03/11 00:02:29;;;;;;;19.33;10.93;;;6.00;80.50;;;;;;4981814;28;20043;-87
2021/03/11 00:04:54;;;;;;;22.98;11.85;;;6.00;80.50;;;;;;4981996;28;20044;-87
2021/03/11 00:07:20;;;;;;;18.63;10.43;;;6.00;80.60;;;;;;4975397;28;20053;-87
2021/03/11 00:09:45;;;;;;;17.17;10.02;;;6.00;80.60;;;;;;4964247;28;20096;-87
2021/03/11 00:12:11;;;;;;;20.88;11.02;;;6.00;80.40;;;;;;4970739;28;20084;-87
2021/03/11 00:14:37;;;;;;;19.25;10.35;;;6.00;80.40;;;;;;4965677;28;20062;-86
2021/03/11 00:17:06;;;;;;;19.67;10.85;;;6.10;80.20;;;;;;4993461;28;20084;-86
2021/03/11 00:19:33;;;;;;;16.48;10.07;;;6.10;80.10;;;;;;4988152;28;20043;-88
2021/03/11 00:22:00;;;;;;;19.10;10.45;;;6.10;80.80;;;;;;4985367;28;20095;-87
2021/03/11 00:24:25;;;;;;;20.85;10.85;;;6.10;80.20;;;;;;5003645;28;20469;-88
2021/03/11 00:26:51;;;;;;;19.38;10.40;;;6.10;80.40;;;;;;5049935;28;20050;-88
2021/03/11 00:29:17;;;;;;;17.00;9.95;;;6.10;80.30;;;;;;5057417;28;20046;-87
2021/03/11 00:31:43;;;;;;;18.90;10.30;;;6.10;80.40;;;;;;4964117;28;20317;-87
2021/03/11 00:34:09;;;;;;;20.88;10.40;;;6.10;80.30;;;;;;4980788;28;20046;-87
2021/03/11 00:36:34;;;;;;;19.90;11.20;;;6.20;80.00;;;;;;5054366;28;20397;-88
2021/03/11 00:39:00;;;;;;;18.02;10.30;;;6.20;79.80;;;;;;4969634;28;20046;-87
2021/03/11 00:41:25;;;;;;;21.67;11.10;;;6.10;79.80;;;;;;4961219;28;20074;-88
2021/03/11 00:43:51;;;;;;;17.17;10.52;;;6.20;79.90;;;;;;4958286;28;20089;-86
2021/03/11 00:46:16;;;;;;;19.58;9.75;;;6.20;80.30;;;;;;4976571;28;20062;-87
2021/03/11 00:48:42;;;;;;;19.73;10.23;;;6.20;79.70;;;;;;4978580;28;20094;-87
2021/03/11 00:51:07;;;;;;;20.95;10.70;;;6.20;79.70;;;;;;4964407;28;20382;-87
2021/03/11 00:53:33;;;;;;;17.52;9.82;;;6.30;79.60;;;;;;4985234;28;20045;-87
2021/03/11 00:55:58;;;;;;;20.55;10.98;;;6.30;79.40;;;;;;4961229;28;20049;-87
2021/03/11 00:58:24;;;;;;;18.00;10.30;;;6.30;79.40;;;;;;4960417;28;20305;-88
2021/03/11 01:00:49;;;;;;;22.23;12.07;;;6.30;79.60;;;;;;4983383;28;20121;-87
2021/03/11 01:03:15;;;;;;;18.88;10.80;;;6.30;79.60;;;;;;4961083;28;20034;-88
2021/03/11 01:05:41;;;;;;;21.65;10.98;;;6.30;79.50;;;;;;4976694;28;20043;-87
2021/03/11 01:08:06;;;;;;;20.63;11.88;;;6.30;79.80;;;;;;4962489;28;20046;-87
2021/03/11 01:10:33;;;;;;;20.25;10.32;;;6.30;79.60;;;;;;4995452;28;20047;-87
2021/03/11 01:12:59;;;;;;;16.90;10.13;;;6.30;79.50;;;;;;5052678;28;20031;-87
2021/03/11 01:15:27;;;;;;;18.15;10.93;;;6.40;79.60;;;;;;4975420;28;20092;-88
2021/03/11 01:17:53;;;;;;;23.55;10.77;;;6.30;79.90;;;;;;4981138;28;20039;-86
2021/03/11 01:20:19;;;;;;;20.73;11.07;;;6.30;80.00;;;;;;4963630;28;20096;-87
2021/03/11 01:22:46;;;;;;;18.52;10.52;;;6.40;80.00;;;;;;4984385;28;20066;-86
2021/03/11 01:25:12;;;;;;;16.13;9.85;;;6.40;79.80;;;;;;4976944;28;20490;-87
2021/03/11 01:27:37;;;;;;;24.52;10.95;;;6.40;79.90;;;;;;4964285;28;20050;-88
2021/03/11 01:30:05;;;;;;;19.83;11.05;;;6.40;79.80;;;;;;4970197;28;20308;-87
2021/03/11 01:32:31;;;;;;;20.45;10.75;;;6.50;80.20;;;;;;4962174;28;20100;-87
2021/03/11 01:34:56;;;;;;;17.50;10.30;;;6.50;79.70;;;;;;4969185;28;20070;-87
2021/03/11 01:37:22;;;;;;;20.88;10.75;;;6.60;79.50;;;;;;4961310;28;20035;-88
2021/03/11 01:39:47;;;;;;;19.38;9.95;;;6.60;79.30;;;;;;4961285;28;20049;-86
2021/03/11 01:42:13;;;;;;;20.00;11.77;;;6.70;79.30;;;;;;4964691;28;20043;-87
2021/03/11 01:44:38;;;;;;;19.45;10.63;;;6.70;79.00;;;;;;4973275;28;20388;-88
2021/03/11 01:47:04;;;;;;;16.77;9.43;;;6.70;79.00;;;;;;4968480;28;20046;-88
2021/03/11 01:49:29;;;;;;;18.60;10.93;;;6.70;79.00;;;;;;4970327;28;20316;-88
2021/03/11 01:51:55;;;;;;;16.80;9.80;;;6.70;78.70;;;;;;4973620;28;20308;-88
2021/03/11 01:54:22;;;;;;;16.73;10.60;;;6.80;78.90;;;;;;4985315;28;20042;-88
2021/03/11 01:56:48;;;;;;;18.83;9.98;;;6.70;78.50;;;;;;4989643;28;20047;-88
2021/03/11 01:59:13;;;;;;;16.60;10.48;;;6.80;78.10;;;;;;4985084;28;20088;-88
2021/03/11 02:01:40;;;;;;;17.45;10.23;;;6.80;77.90;;;;;;4963310;28;20039;-87
2021/03/11 02:04:05;;;;;;;17.65;9.52;;;6.90;77.10;;;;;;4960943;28;20316;-88
2021/03/11 02:06:31;;;;;;;16.38;9.40;;;6.90;77.20;;;;;;5046440;28;20030;-88
2021/03/11 02:08:56;;;;;;;17.83;10.73;;;7.00;76.70;;;;;;4986883;28;20074;-88
2021/03/11 02:11:33;;;;;;;18.45;10.05;;;7.00;77.30;;;;;;4965370;28;20038;-88
2021/03/11 02:14:11;;;;;;;17.73;9.25;;;7.00;76.30;;;;;;4984277;28;20120;-88
2021/03/11 02:16:45;;;;;;;17.48;9.43;;;7.00;76.40;;;;;;5003070;28;20047;-88
2021/03/11 02:19:35;;;;;;;17.25;9.52;;;7.00;76.20;;;;;;4963841;28;20035;-88
2021/03/11 02:22:17;;;;;;;18.83;9.98;;;7.00;75.90;;;;;;5045416;28;20042;-88
2021/03/11 02:24:45;;;;;;;18.98;9.90;;;7.10;76.40;;;;;;4984264;28;20034;-87
2021/03/11 02:27:39;;;;;;;17.95;9.57;;;7.10;75.80;;;;;;4979831;28;20038;-89
2021/03/11 02:30:06;;;;;;;17.50;9.77;;;7.10;75.40;;;;;;4983725;28;20068;-86
2021/03/11 02:32:32;;;;;;;17.40;10.40;;;7.20;75.40;;;;;;4989749;28;20036;-88
2021/03/11 02:35:01;;;;;;;17.38;9.40;;;7.20;75.20;;;;;;4965546;28;20043;-88
2021/03/11 02:37:39;;;;;;;19.10;10.65;;;7.20;74.90;;;;;;4969820;28;20042;-89
2021/03/11 02:40:15;;;;;;;18.55;9.48;;;7.30;75.10;;;;;;4995275;28;20035;-88
2021/03/11 02:42:42;;;;;;;20.05;10.25;;;7.30;74.90;;;;;;4985875;28;20026;-88
2021/03/11 02:45:10;;;;;;;17.02;9.77;;;7.30;75.50;;;;;;4960719;28;20039;-89
2021/03/11 02:47:38;;;;;;;21.55;10.57;;;7.30;75.40;;;;;;4968126;28;20039;-88
2021/03/11 02:50:05;;;;;;;21.10;10.52;;;7.40;75.60;;;;;;4966905;28;20042;-88
2021/03/11 02:52:33;;;;;;;20.17;10.93;;;7.40;75.90;;;;;;4976946;28;20043;-87
2021/03/11 02:55:00;;;;;;;16.40;10.68;;;7.40;75.90;;;;;;4983974;28;20043;-88
2021/03/11 02:57:27;;;;;;;16.38;10.52;;;7.40;75.90;;;;;;4963513;28;20046;-88
2021/03/11 02:59:55;;;;;;;21.10;11.52;;;7.50;77.30;;;;;;4969753;28;20046;-88
2021/03/11 03:02:21;;;;;;;18.20;11.07;;;7.50;77.30;;;;;;4991442;28;20097;-87
2021/03/11 03:04:53;;;;;;;21.67;11.52;;;7.50;77.20;;;;;;4964814;28;20440;-89
2021/03/11 03:07:20;;;;;;;19.73;11.23;;;7.50;77.20;;;;;;4985686;28;20034;-87
2021/03/11 03:09:47;;;;;;;20.10;11.60;;;7.50;78.00;;;;;;4993469;28;20034;-88
2021/03/11 03:12:15;;;;;;;21.88;12.90;;;7.50;77.90;;;;;;4974275;28;20103;-87
2021/03/11 03:14:44;;;;;;;19.25;12.15;;;7.40;79.40;;;;;;4993508;28;20058;-87
2021/03/11 03:17:12;;;;;;;18.60;10.13;;;7.40;78.30;;;;;;4973479;28;20319;-88
2021/03/11 03:19:39;;;;;;;21.23;12.50;;;7.40;78.70;;;;;;4980719;28;20153;-87
2021/03/11 03:22:07;;;;;;;22.55;11.95;;;7.40;79.60;;;;;;4983309;28;20045;-87
2021/03/11 03:24:33;;;;;;;23.33;13.10;;;7.40;79.70;;;;;;4993387;28;20038;-88
2021/03/11 03:26:59;;;;;;;19.95;11.45;;;7.40;79.40;;;;;;4979361;28;20308;-87
2021/03/11 03:29:25;;;;;;;22.90;12.05;;;7.50;79.40;;;;;;4979114;28;20051;-87
2021/03/11 03:31:51;;;;;;;20.33;11.77;;;7.40;79.80;;;;;;4972727;28;20037;-87
2021/03/11 03:34:16;;;;;;;23.10;13.07;;;7.40;79.30;;;;;;4996309;28;20330;-87
2021/03/11 03:36:42;;;;;;;22.98;12.70;;;7.40;80.00;;;;;;4986000;28;20038;-87
2021/03/11 03:39:09;;;;;;;22.25;12.65;;;7.30;79.90;;;;;;4975266;28;20070;-88
2021/03/11 03:41:38;;;;;;;21.88;12.15;;;7.30;79.80;;;;;;4987216;28;20052;-88
2021/03/11 03:44:06;;;;;;;18.85;10.85;;;7.30;80.30;;;;;;4994695;28;20300;-88
2021/03/11 03:46:34;;;;;;;19.30;11.68;;;7.30;80.00;;;;;;4969841;28;20045;-88
2021/03/11 03:49:02;;;;;;;25.40;12.13;;;7.30;79.70;;;;;;4968524;28;20358;-88
2021/03/11 03:51:31;;;;;;;21.50;11.60;;;7.30;79.50;;;;;;4968996;28;20042;-88
2021/03/11 03:54:09;;;;;;;18.10;11.52;;;7.40;79.60;;;;;;4989848;28;20077;-88
2021/03/11 03:56:38;;;;;;;22.25;11.73;;;7.40;80.00;;;;;;4985399;28;20042;-87
2021/03/11 03:59:08;;;;;;;20.23;11.68;;;7.40;80.00;;;;;;4976241;28;20129;-87
2021/03/11 04:01:37;;;;;;;19.45;10.90;;;7.40;81.30;;;;;;4993908;28;20125;-88
2021/03/11 04:04:05;;;;;;;20.33;11.52;;;7.40;80.90;;;;;;4986260;28;20038;-87
2021/03/11 04:06:31;;;;;;;20.08;10.88;;;7.50;80.20;;;;;;4961849;28;20042;-88
2021/03/11 04:09:00;;;;;;;19.30;11.57;;;7.40;79.40;;;;;;4972736;28;20061;-87
2021/03/11 04:11:25;;;;;;;20.88;11.10;;;7.40;78.60;;;;;;4987237;28;20046;-89
2021/03/11 04:13:52;;;;;;;20.45;11.65;;;7.50;79.40;;;;;;4975570;28;20035;-88
2021/03/11 04:16:18;;;;;;;20.48;10.27;;;7.40;79.00;;;;;;4961156;28;20042;-88
2021/03/11 04:18:45;;;;;;;20.27;11.23;;;7.50;79.10;;;;;;4976059;28;20035;-89
2021/03/11 04:21:11;;;;;;;19.88;11.30;;;7.50;79.50;;;;;;4983348;28;20042;-88
2021/03/11 04:23:37;;;;;;;21.20;11.82;;;7.50;79.10;;;;;;4990703;28;20038;-86
2021/03/11 04:26:05;;;;;;;20.17;10.48;;;7.50;78.60;;;;;;4988032;28;20034;-86
2021/03/11 04:28:32;;;;;;;22.75;11.48;;;7.60;78.30;;;;;;4991368;28;20057;-87
2021/03/11 04:30:57;;;;;;;21.83;10.27;;;7.60;78.60;;;;;;5056448;28;20130;-86
2021/03/11 04:33:24;;;;;;;17.80;10.52;;;7.60;78.10;;;;;;4961060;28;20480;-86
2021/03/11 04:35:50;;;;;;;21.55;11.20;;;7.70;78.30;;;;;;4962582;28;20038;-86
2021/03/11 04:38:17;;;;;;;16.58;10.02;;;7.70;78.30;;;;;;4960541;28;20042;-87
2021/03/11 04:40:43;;;;;;;17.85;10.50;;;7.70;77.30;;;;;;4991888;28;20042;-87
2021/03/11 04:43:08;;;;;;;20.42;10.23;;;7.70;77.40;;;;;;4990304;28;20108;-87
2021/03/11 04:45:34;;;;;;;16.90;9.95;;;7.80;77.80;;;;;;4965785;28;20046;-88
2021/03/11 04:48:01;;;;;;;16.63;10.02;;;7.80;78.10;;;;;;4977834;28;20042;-87
2021/03/11 04:50:29;;;;;;;20.08;9.85;;;7.80;78.20;;;;;;4977183;28;20383;-87
2021/03/11 04:52:56;;;;;;;15.48;9.23;;;7.80;78.10;;;;;;4968716;28;20361;-87
2021/03/11 04:55:21;;;;;;;18.25;9.35;;;7.70;78.30;;;;;;4980269;28;20046;-87
2021/03/11 04:57:47;;;;;;;18.15;10.63;;;7.70;78.30;;;;;;4975324;28;20046;-86
2021/03/11 05:00:15;;;;;;;17.33;9.77;;;7.70;78.90;;;;;;4978534;28;20472;-87
2021/03/11 05:02:45;;;;;;;19.13;10.10;;;7.70;78.70;;;;;;4981036;28;20042;-91
2021/03/11 05:05:11;;;;;;;16.75;9.30;;;7.70;79.80;;;;;;4963269;28;20377;-90
2021/03/11 05:07:36;;;;;;;15.90;9.65;;;7.80;80.00;;;;;;4976064;28;20038;-87
2021/03/11 05:10:03;;;;;;;17.85;9.73;;;7.80;79.70;;;;;;4970109;28;20099;-87
2021/03/11 05:12:28;;;;;;;15.07;9.25;;;7.80;80.10;;;;;;4982302;28;20027;-88
2021/03/11 05:14:54;;;;;;;17.23;9.77;;;7.80;80.50;;;;;;4969561;28;20055;-88
2021/03/11 05:17:20;;;;;;;15.98;8.65;;;7.80;80.20;;;;;;4972882;28;20419;-88
2021/03/11 05:19:46;;;;;;;15.32;8.57;;;7.80;80.90;;;;;;4976022;28;20078;-87
2021/03/11 05:22:11;;;;;;;15.38;9.27;;;7.80;81.10;;;;;;4985302;28;20091;-88
2021/03/11 05:24:37;;;;;;;17.75;9.07;;;7.80;82.10;;;;;;4974972;28;20387;-87
2021/03/11 05:27:02;;;;;;;16.20;9.68;;;7.80;81.90;;;;;;4961359;28;20070;-88
2021/03/11 05:29:28;;;;;;;15.70;9.55;;;7.80;82.30;;;;;;5039039;28;20483;-88
2021/03/11 05:31:53;;;;;;;18.65;9.65;;;7.80;83.00;;;;;;4961836;28;20392;-89
2021/03/11 05:34:19;;;;;;;15.18;8.82;;;7.70;83.00;;;;;;4977604;28;20038;-89
2021/03/11 05:36:44;;;;;;;20.38;9.90;;;7.70;83.50;;;;;;4957845;28;20069;-88
2021/03/11 05:39:10;;;;;;;16.25;9.52;;;7.70;84.30;;;;;;4960643;28;20057;-88
2021/03/11 05:41:39;;;;;;;19.42;9.13;;;7.60;85.00;;;;;;4965729;28;20473;-88
2021/03/11 05:44:08;;;;;;;16.75;9.50;;;7.60;85.70;;;;;;4974957;28;20039;-86
2021/03/11 05:46:39;;;;;;;19.02;11.13;;;7.60;86.30;;;;;;4964582;28;20099;-88
2021/03/11 05:49:07;;;;;;;16.05;9.88;;;7.60;86.90;;;;;;5044526;28;20042;-87
2021/03/11 05:51:33;;;;;;;18.17;9.20;;;7.50;87.50;;;;;;4966513;28;20034;-86
2021/03/11 05:53:59;;;;;;;21.95;12.73;;;7.50;88.10;;;;;;4981721;28;20045;-88
2021/03/11 05:56:25;;;;;;;28.13;16.10;;;7.50;88.40;;;;;;4981320;28;20099;-86
2021/03/11 05:58:53;;;;;;;25.50;13.25;;;7.50;89.10;;;;;;4962133;28;20043;-86
2021/03/11 06:01:19;;;;;;;21.75;10.52;;;7.40;89.20;;;;;;4963554;28;20081;-87
2021/03/11 06:03:47;;;;;;;51.35;24.45;;;7.50;89.30;;;;;;5041188;28;20043;-88
2021/03/11 06:06:13;;;;;;;88.40;42.97;;;7.50;89.90;;;;;;5056244;28;20043;-87
2021/03/11 06:08:39;;;;;;;20.70;11.93;;;7.40;90.20;;;;;;4988914;28;20053;-87
2021/03/11 06:11:04;;;;;;;20.58;11.50;;;7.40;90.30;;;;;;4997998;28;20455;-87
2021/03/11 06:13:31;;;;;;;21.92;11.93;;;7.40;90.00;;;;;;5007900;28;20134;-87
2021/03/11 06:16:11;;;;;;;22.00;11.25;;;7.40;90.30;;;;;;4986708;28;20424;-86
2021/03/11 06:18:38;;;;;;;17.92;10.70;;;7.30;90.20;;;;;;5049654;28;20046;-87
2021/03/11 06:21:04;;;;;;;17.33;10.57;;;7.30;89.70;;;;;;4992030;28;20078;-88
2021/03/11 06:23:30;;;;;;;19.90;9.05;;;7.20;89.70;;;;;;4979551;28;20101;-88
2021/03/11 06:25:57;;;;;;;22.27;10.45;;;7.20;89.80;;;;;;4967888;28;20062;-88
2021/03/11 06:28:45;;;;;;;18.35;9.95;;;7.30;89.60;;;;;;4999143;28;20073;-87
2021/03/11 06:31:27;;;;;;;16.42;10.10;;;7.20;89.30;;;;;;4991019;28;20101;-88
2021/03/11 06:33:55;;;;;;;18.88;9.88;;;7.30;89.40;;;;;;4958250;28;20147;-87
2021/03/11 06:36:23;;;;;;;16.85;9.68;;;7.30;89.20;;;;;;4963414;28;20108;-88
2021/03/11 06:38:49;;;;;;;15.07;8.90;;;7.30;88.90;;;;;;4989928;28;20042;-86
2021/03/11 06:41:15;;;;;;;16.75;9.35;;;7.40;88.40;;;;;;4968873;28;20038;-86
2021/03/11 06:43:51;;;;;;;15.77;8.85;;;7.40;88.30;;;;;;4966922;28;20042;-86
2021/03/11 06:46:17;;;;;;;16.15;8.63;;;7.50;87.80;;;;;;4981016;28;20698;-87
2021/03/11 06:48:43;;;;;;;13.90;8.70;;;7.50;87.10;;;;;;4969699;28;20060;-87
2021/03/11 06:51:19;;;;;;;16.20;8.32;;;7.60;86.90;;;;;;4967609;28;20408;-87
2021/03/11 06:53:57;;;;;;;14.02;8.00;;;7.60;87.10;;;;;;4987310;28;20038;-86
2021/03/11 06:56:23;;;;;;;17.55;8.20;;;7.70;86.20;;;;;;4985168;28;20039;-87
2021/03/11 06:58:56;;;;;;;15.55;9.63;;;7.80;86.00;;;;;;4981976;28;20070;-86
2021/03/11 07:01:22;;;;;;;15.73;9.00;;;7.80;85.50;;;;;;4979803;28;20042;-87
2021/03/11 07:03:49;;;;;;;15.40;8.40;;;7.90;85.80;;;;;;4976403;28;20091;-86
2021/03/11 07:06:44;;;;;;;13.75;7.88;;;8.00;85.40;;;;;;5002484;28;20057;-87
2021/03/11 07:09:10;;;;;;;11.65;7.93;;;8.10;84.40;;;;;;4962377;28;20054;-87
2021/03/11 07:11:35;;;;;;;12.85;7.68;;;8.10;84.10;;;;;;4994054;28;20034;-87
2021/03/11 07:14:03;;;;;;;13.50;8.75;;;8.10;84.00;;;;;;4993797;28;20028;-86
2021/03/11 07:16:33;;;;;;;11.82;7.97;;;8.20;84.20;;;;;;5007785;28;20047;-87
2021/03/11 07:19:16;;;;;;;11.90;6.75;;;8.30;83.80;;;;;;5013708;28;20176;-86
2021/03/11 07:21:50;;;;;;;13.38;6.57;;;8.40;83.50;;;;;;4994168;28;20176;-86
2021/03/11 07:24:36;;;;;;;11.35;6.78;;;8.40;83.30;;;;;;5078242;28;20042;-87
2021/03/11 07:27:03;;;;;;;11.80;6.45;;;8.50;83.10;;;;;;4969869;28;20350;-87
2021/03/11 07:29:28;;;;;;;9.00;6.25;;;8.50;82.70;;;;;;4990732;28;20042;-87
2021/03/11 07:31:57;;;;;;;8.52;5.15;;;8.50;82.90;;;;;;4984293;28;20035;-87
2021/03/11 07:34:32;;;;;;;10.43;5.72;;;8.60;82.70;;;;;;4984702;28;20133;-86
2021/03/11 07:36:59;;;;;;;7.72;5.30;;;8.60;81.90;;;;;;4966853;28;20365;-87
2021/03/11 07:39:36;;;;;;;9.02;5.03;;;8.70;81.70;;;;;;4993682;28;20124;-87
2021/03/11 07:42:04;;;;;;;9.23;4.78;;;8.80;82.10;;;;;;4998134;28;20096;-87
2021/03/11 07:44:30;;;;;;;8.32;4.97;;;8.80;82.00;;;;;;4961156;28;20042;-87
2021/03/11 07:46:58;;;;;;;9.43;4.45;;;8.90;81.80;;;;;;4956539;28;20053;-85
2021/03/11 07:49:25;;;;;;;8.27;5.25;;;8.90;81.00;;;;;;4956328;28;20071;-86
2021/03/11 07:51:52;;;;;;;10.27;5.40;;;9.00;81.50;;;;;;4971199;28;20053;-87
2021/03/11 07:54:21;;;;;;;7.18;4.82;;;9.10;81.20;;;;;;4982822;28;20196;-87
2021/03/11 07:56:48;;;;;;;10.50;4.72;;;9.00;81.20;;;;;;4972556;28;20403;-86
2021/03/11 07:59:14;;;;;;;9.88;4.80;;;9.10;81.50;;;;;;5049529;28;20039;-87
2021/03/11 08:02:08;;;;;;;8.20;5.30;;;9.10;81.70;;;;;;4956186;28;20048;-88
2021/03/11 08:04:39;;;;;;;6.82;4.55;;;9.10;81.30;;;;;;4986002;28;20108;-86
2021/03/11 08:07:22;;;;;;;6.50;4.65;;;9.10;81.40;;;;;;4973854;28;20043;-87
2021/03/11 08:09:53;;;;;;;10.18;4.93;;;9.10;81.50;;;;;;4953469;28;20107;-87
2021/03/11 08:12:38;;;;;;;7.22;5.22;;;9.20;81.80;;;;;;4971614;28;20416;-86
2021/03/11 08:15:27;;;;;;;9.05;4.68;;;9.20;81.60;;;;;;4976965;28;20375;-87
2021/03/11 08:17:54;;;;;;;9.95;4.93;;;9.30;81.60;;;;;;4991019;28;20054;-87
2021/03/11 08:20:19;;;;;;;10.25;4.78;;;9.30;81.80;;;;;;4995116;28;20042;-88
2021/03/11 08:22:51;;;;;;;6.65;4.55;;;9.30;81.30;;;;;;4985998;28;20035;-86
2021/03/11 08:25:36;;;;;;;6.35;4.05;;;9.30;81.60;;;;;;5057826;28;20073;-87
2021/03/11 08:28:09;;;;;;;9.23;4.47;;;9.30;81.70;;;;;;4984778;28;20042;-86
2021/03/11 08:30:40;;;;;;;7.18;5.28;;;9.30;81.90;;;;;;5049911;28;20035;-88
2021/03/11 08:33:07;;;;;;;12.48;4.55;;;9.40;81.40;;;;;;5055412;28;20063;-90
2021/03/11 08:35:38;;;;;;;5.38;3.92;;;9.40;82.20;;;;;;4967680;28;20371;-90
2021/03/11 08:38:19;;;;;;;8.02;5.00;;;9.50;82.90;;;;;;4973424;28;20043;-89
2021/03/11 08:41:07;;;;;;;9.80;4.32;;;9.40;83.50;;;;;;4975595;28;20164;-88
2021/03/11 08:43:39;;;;;;;8.40;5.55;;;9.40;83.90;;;;;;4984758;28;20042;-88
2021/03/11 08:46:18;;;;;;;8.15;5.30;;;9.40;83.80;;;;;;4958786;28;20046;-89
2021/03/11 08:48:49;;;;;;;6.28;4.47;;;9.40;83.30;;;;;;4972357;28;20050;-88
2021/03/11 08:51:17;;;;;;;7.35;4.30;;;9.40;83.60;;;;;;4969516;28;20043;-89
2021/03/11 08:53:48;;;;;;;10.45;5.20;;;9.40;83.20;;;;;;5058262;28;20038;-88
2021/03/11 08:56:16;;;;;;;9.70;4.45;;;9.50;83.30;;;;;;4989318;28;20038;-89
2021/03/11 08:59:07;;;;;;;10.52;4.75;;;9.60;83.30;;;;;;5049404;28;20047;-89
2021/03/11 09:01:50;;;;;;;9.35;5.45;;;9.60;82.50;;;;;;4981792;28;20078;-89
2021/03/11 09:04:27;;;;;;;9.45;5.40;;;9.70;82.60;;;;;;4984446;28;20078;-88
2021/03/11 09:06:58;;;;;;;8.30;4.85;;;9.70;82.20;;;;;;4973738;28;20647;-89
2021/03/11 09:09:31;;;;;;;10.60;5.28;;;9.80;82.20;;;;;;5041724;28;20046;-89
2021/03/11 09:11:58;;;;;;;8.18;4.97;;;9.80;82.40;;;;;;4955974;28;20050;-87
2021/03/11 09:14:24;;;;;;;7.93;5.38;;;9.90;82.00;;;;;;4957019;28;20042;-89
2021/03/11 09:16:50;;;;;;;6.85;5.10;;;10.00;81.10;;;;;;4966407;28;20108;-89
2021/03/11 09:19:16;;;;;;;8.50;5.20;;;10.10;81.80;;;;;;5049261;28;20034;-88
2021/03/11 09:21:43;;;;;;;7.72;4.75;;;10.10;81.60;;;;;;4969491;28;20043;-88
2021/03/11 09:24:19;;;;;;;13.63;4.93;;;10.10;80.90;;;;;;4971922;28;20042;-87
2021/03/11 09:26:45;;;;;;;8.30;5.22;;;10.20;80.80;;;;;;4956639;28;20035;-87
2021/03/11 09:29:11;;;;;;;7.93;4.28;;;10.20;80.40;;;;;;4967795;28;20111;-89
2021/03/11 09:31:39;;;;;;;7.70;4.93;;;10.20;80.40;;;;;;4992687;28;20038;-89
2021/03/11 09:34:06;;;;;;;7.50;4.50;;;10.20;80.50;;;;;;4986090;28;20037;-88
2021/03/11 09:36:32;;;;;;;9.00;5.30;;;10.10;81.00;;;;;;4975022;28;20058;-88
2021/03/11 09:39:04;;;;;;;7.97;4.38;;;10.10;81.40;;;;;;4989717;28;20053;-88
2021/03/11 09:41:31;;;;;;;7.53;4.80;;;10.20;81.50;;;;;;4982130;28;20057;-89
2021/03/11 09:44:02;;;;;;;11.45;6.07;;;10.20;83.00;;;;;;4966533;28;20047;-87
2021/03/11 09:46:27;;;;;;;8.68;5.15;;;10.20;83.40;;;;;;4959692;28;20034;-89
2021/03/11 09:48:55;;;;;;;9.02;5.28;;;10.10;84.10;;;;;;4959875;28;20121;-89
2021/03/11 09:51:28;;;;;;;9.80;5.80;;;10.10;84.20;;;;;;4965321;28;20399;-90
2021/03/11 09:53:59;;;;;;;7.80;5.05;;;10.00;85.90;;;;;;4969207;28;20108;-88
2021/03/11 09:56:42;;;;;;;8.10;5.45;;;9.90;87.00;;;;;;4960049;28;20164;-88
2021/03/11 09:59:14;;;;;;;9.60;6.30;;;9.90;87.20;;;;;;5059284;28;20046;-88
2021/03/11 10:01:41;;;;;;;;;;;10.00;87.30;;;;;;4982040;28;20034;-89
2021/03/11 10:04:28;;;;;;;8.40;6.07;;;10.00;88.00;;;;;;4983519;28;19925;-89
2021/03/11 10:07:04;;;;;;;7.50;4.90;;;9.90;88.10;;;;;;4987329;28;20038;-89
2021/03/11 10:09:41;;;;;;;8.43;5.50;;;10.00;87.40;;;;;;4960243;28;20309;-88
2021/03/11 10:12:07;;;;;;;7.57;5.20;;;10.10;87.40;;;;;;4968811;28;20150;-89
2021/03/11 10:14:33;;;;;;;6.03;4.60;;;10.20;87.40;;;;;;4979907;28;20488;-87
2021/03/11 10:17:04;;;;;;;10.70;5.20;;;10.30;87.60;;;;;;4979385;28;20035;-88
2021/03/11 10:19:30;;;;;;;6.95;4.57;;;10.30;87.20;;;;;;4972629;28;20465;-88
2021/03/11 10:21:58;;;;;;;5.95;4.20;;;10.40;86.60;;;;;;4976035;28;20112;-89
2021/03/11 10:24:40;;;;;;;9.55;4.32;;;10.30;86.70;;;;;;4976510;28;20340;-88
2021/03/11 10:27:23;;;;;;;6.65;4.85;;;10.30;87.40;;;;;;4974265;28;20262;-89
2021/03/11 10:30:04;;;;;;;6.90;4.00;;;10.30;87.40;;;;;;4973957;28;20416;-90
2021/03/11 10:32:30;;;;;;;7.95;4.22;;;10.40;86.40;;;;;;4988178;28;20042;-89
2021/03/11 10:34:55;;;;;;;6.05;4.20;;;10.40;86.40;;;;;;4977331;28;20092;-90
2021/03/11 10:37:31;;;;;;;6.68;5.13;;;10.50;87.80;;;;;;4972081;28;20041;-88
2021/03/11 10:40:03;;;;;;;5.88;4.03;;;10.70;86.90;;;;;;4965615;28;20337;-89
2021/03/11 10:42:44;;;;;;;8.05;4.60;;;10.80;86.50;;;;;;4995323;28;20137;-89
2021/03/11 10:45:11;;;;;;;4.75;3.55;;;11.00;86.20;;;;;;4984404;28;20134;-88
2021/03/11 10:47:37;;;;;;;6.78;4.18;;;11.20;85.00;;;;;;4960943;28;20051;-88
2021/03/11 10:50:15;;;;;;;5.57;4.40;;;11.30;85.00;;;;;;4952965;28;20494;-90
2021/03/11 10:52:51;;;;;;;5.50;3.97;;;11.50;84.00;;;;;;5040416;28;20122;-90
2021/03/11 10:55:29;;;;;;;6.80;4.50;;;11.60;82.70;;;;;;4967945;28;20138;-90
2021/03/11 10:57:55;;;;;;;4.97;3.63;;;11.60;83.20;;;;;;4975531;28;20046;-89
2021/03/11 11:00:23;;;;;;;6.18;4.05;;;11.60;82.60;;;;;;4973174;28;20417;-90
2021/03/11 11:02:53;;;;;;;8.13;4.47;;;11.60;82.40;;;;;;4949919;28;20134;-89
2021/03/11 11:05:19;;;;;;;8.73;4.28;;;11.60;82.50;;;;;;4968983;28;20070;-91
2021/03/11 11:07:44;;;;;;;5.75;4.15;;;11.70;83.30;;;;;;4960099;28;20400;-91
2021/03/11 11:10:10;;;;;;;6.32;4.47;;;11.70;82.80;;;;;;4959996;28;20081;-89
2021/03/11 11:12:36;;;;;;;6.18;4.07;;;11.70;82.00;;;;;;4959629;28;20422;-91
2021/03/11 11:15:02;;;;;;;8.20;4.03;;;11.80;81.30;;;;;;5044226;28;20139;-91
2021/03/11 11:17:28;;;;;;;7.03;3.63;;;11.80;81.50;;;;;;4942404;28;20085;-89
2021/03/11 11:19:54;;;;;;;8.75;4.32;;;11.80;81.10;;;;;;4957142;28;20035;-90
2021/03/11 11:22:19;;;;;;;4.85;3.80;;;11.70;81.10;;;;;;4948537;28;20082;-90
2021/03/11 11:24:45;;;;;;;6.10;4.90;;;11.60;81.40;;;;;;4956504;28;20480;-89
2021/03/11 11:27:10;;;;;;;4.65;3.88;;;11.60;81.50;;;;;;4954975;28;20079;-88
2021/03/11 11:29:36;;;;;;;5.05;3.90;;;11.60;81.30;;;;;;4949832;28;20049;-89
2021/03/11 11:32:02;;;;;;;4.70;3.33;;;11.70;81.90;;;;;;4947053;28;20035;-89
2021/03/11 11:34:30;;;;;;;7.53;3.75;;;11.70;81.40;;;;;;4956419;28;20043;-90
2021/03/11 11:36:56;;;;;;;5.68;3.50;;;11.70;80.70;;;;;;4950638;28;20031;-91
2021/03/11 11:39:22;;;;;;;5.00;3.25;;;11.90;82.00;;;;;;4945068;29;20054;-90
2021/03/11 11:41:50;;;;;;;4.78;3.40;;;12.00;81.00;;;;;;4940802;28;20784;-89
2021/03/11 11:44:16;;;;;;;4.72;3.03;;;12.20;80.20;;;;;;4940176;28;20054;-89
2021/03/11 11:46:43;;;;;;;3.90;2.72;;;12.50;79.10;;;;;;4962302;28;20039;-88
2021/03/11 11:49:09;;;;;;;6.88;2.85;;;12.60;77.60;;;;;;4927270;28;20043;-88
2021/03/11 11:51:35;;;;;;;4.63;3.00;;;12.70;78.10;;;;;;4940755;28;20089;-88
2021/03/11 11:54:01;;;;;;;5.32;3.22;;;12.80;76.70;;;;;;4924488;28;20039;-88
2021/03/11 11:56:26;;;;;;;3.15;2.85;;;12.90;77.40;;;;;;4934326;28;20566;-89
2021/03/11 11:58:52;;;;;;;3.42;2.58;;;12.90;76.60;;;;;;4962431;28;20054;-88
2021/03/11 12:01:18;;;;;;;5.53;2.75;;;12.90;76.30;;;;;;4977390;28;20357;-90
2021/03/11 12:03:43;;;;;;;4.50;2.47;;;12.80;76.20;;;;;;4960397;28;20050;-89
2021/03/11 12:06:09;;;;;;;4.03;2.75;;;12.70;76.90;;;;;;4963121;28;20153;-88
2021/03/11 12:08:36;;;;;;;4.68;2.97;;;12.60;77.30;;;;;;4959386;28;20047;-88
2021/03/11 12:11:01;;;;;;;3.70;2.55;;;12.50;77.40;;;;;;4960352;28;20034;-89
2021/03/11 12:13:28;;;;;;;3.58;2.30;;;12.40;78.10;;;;;;4958845;28;20031;-89
2021/03/11 12:15:53;;;;;;;2.80;2.42;;;12.40;79.20;;;;;;4978099;28;20121;-89
2021/03/11 12:18:19;;;;;;;3.65;2.55;;;12.40;78.60;;;;;;4986594;28;20113;-89
2021/03/11 12:20:45;;;;;;;5.65;2.10;;;12.40;78.70;;;;;;4958091;28;20039;-88
2021/03/11 12:23:10;;;;;;;3.15;2.30;;;12.50;78.30;;;;;;4952202;28;20035;-89
2021/03/11 12:25:36;;;;;;;3.63;2.40;;;12.60;78.70;;;;;;4979719;28;20456;-89
2021/03/11 12:28:03;;;;;;;3.30;2.03;;;12.70;78.00;;;;;;4971456;28;20044;-88
2021/03/11 12:30:30;;;;;;;4.38;1.73;;;12.80;78.40;;;;;;4973962;28;20080;-89
2021/03/11 12:32:56;;;;;;;2.88;2.00;;;12.90;77.30;;;;;;4957752;28;20072;-88
2021/03/11 12:35:23;;;;;;;3.63;2.28;;;13.00;78.20;;;;;;4957824;28;20035;-89
2021/03/11 12:37:50;;;;;;;10.63;2.25;;;13.00;77.50;;;;;;4957456;28;20039;-87
2021/03/11 12:40:16;;;;;;;2.42;2.20;;;13.00;78.00;;;;;;4958519;28;20035;-89
2021/03/11 12:42:46;;;;;;;8.18;2.05;;;13.00;78.20;;;;;;4974725;28;20062;-89
2021/03/11 12:45:17;;;;;;;3.35;1.73;;;13.00;78.30;;;;;;4956238;28;20043;-88
2021/03/11 12:47:44;;;;;;;4.15;2.22;;;12.90;78.70;;;;;;4952819;28;20392;-89
2021/03/11 12:50:11;;;;;;;1.85;1.60;;;13.00;78.40;;;;;;4971893;28;20100;-91
2021/03/11 12:52:37;;;;;;;5.03;1.90;;;13.00;78.60;;;;;;4957562;28;20078;-90